sensor_id;sensor_type;location;lat;lon;timestamp;temperature;humidity
8633;DHT22;4354;49.832;10.746;2022-07-21T00:01:52;21.70;99.90
8633;DHT22;4354;49.832;10.746;2022-07-21T00:04:20;21.70;99.90
8633;DHT22;4354;49.832;10.746;2022-07-21T00:06:49;21.70;99.90
8633;DHT22;4354;49.832;10.746;2022-07-21T00:09:16;21.60;99.90
8633;DHT22;4354;49.832;10.746;2022-07-21T00:11:43;21.60;99.90
8633;DHT22;4354;49.832;10.746;2022-07-21T00:14:11;21.60;99.90
8633;DHT22;4354;49.832;10.746;2022-07-21T00:16:39;21.50;99.90
8633;DHT22;4354;49.832;10.746;2022-07-21T00:19:07;21.50;99.90
8633;DHT22;4354;49.832;10.746;2022-07-21T00:21:35;21.50;99.90
8633;DHT22;4354;49.832;10.746;2022-07-21T00:24:02;21.50;99.90
8633;DHT22;4354;49.832;10.746;2022-07-21T00:26:29;21.40;99.90
8633;DHT22;4354;49.832;10.746;2022-07-21T00:28:56;21.30;99.90
8633;DHT22;4354;49.832;10.746;2022-07-21T00:31:23;21.40;99.90
8633;DHT22;4354;49.832;10.746;2022-07-21T00:33:50;21.40;99.90
8633;DHT22;4354;49.832;10.746;2022-07-21T00:36:21;21.40;99.90
8633;DHT22;4354;49.832;10.746;2022-07-21T00:38:48;21.40;99.90
8633;DHT22;4354;49.832;10.746;2022-07-21T00:41:15;21.30;99.90
8633;DHT22;4354;49.832;10.746;2022-07-21T00:43:42;21.30;99.90
8633;DHT22;4354;49.832;10.746;2022-07-21T00:46:09;21.30;99.90
8633;DHT22;4354;49.832;10.746;2022-07-21T00:48:36;21.30;99.90
8633;DHT22;4354;49.832;10.746;2022-07-21T00:51:03;21.20;99.90
8633;DHT22;4354;49.832;10.746;2022-07-21T00:53:30;21.20;99.90
8633;DHT22;4354;49.832;10.746;2022-07-21T00:55:59;21.30;99.90
8633;DHT22;4354;49.832;10.746;2022-07-21T00:58:26;21.20;99.90
8633;DHT22;4354;49.832;10.746;2022-07-21T01:00:53;21.20;99.90
8633;DHT22;4354;49.832;10.746;2022-07-21T01:03:20;21.20;99.90
8633;DHT22;4354;49.832;10.746;2022-07-21T01:05:47;21.20;99.90
8633;DHT22;4354;49.832;10.746;2022-07-21T01:08:15;21.20;99.90
8633;DHT22;4354;49.832;10.746;2022-07-21T01:10:42;21.20;99.90
8633;DHT22;4354;49.832;10.746;2022-07-21T01:13:09;21.20;99.90
8633;DHT22;4354;49.832;10.746;2022-07-21T01:15:36;21.20;99.90
8633;DHT22;4354;49.832;10.746;2022-07-21T01:18:04;21.20;99.90
8633;DHT22;4354;49.832;10.746;2022-07-21T01:20:33;21.10;99.90
8633;DHT22;4354;49.832;10.746;2022-07-21T01:23:02;21.10;99.90
8633;DHT22;4354;49.832;10.746;2022-07-21T01:25:29;21.00;99.90
8633;DHT22;4354;49.832;10.746;2022-07-21T01:27:56;21.00;99.90
8633;DHT22;4354;49.832;10.746;2022-07-21T01:30:23;21.00;99.90
8633;DHT22;4354;49.832;10.746;2022-07-21T01:32:50;21.00;99.90
8633;DHT22;4354;49.832;10.746;2022-07-21T01:35:18;21.00;99.90
8633;DHT22;4354;49.832;10.746;2022-07-21T01:37:46;21.10;99.90
8633;DHT22;4354;49.832;10.746;2022-07-21T01:40:16;21.00;99.90
8633;DHT22;4354;49.832;10.746;2022-07-21T01:43:03;21.00;99.90
8633;DHT22;4354;49.832;10.746;2022-07-21T01:45:38;21.00;99.90
8633;DHT22;4354;49.832;10.746;2022-07-21T01:48:05;20.90;99.90
8633;DHT22;4354;49.832;10.746;2022-07-21T01:50:33;20.90;99.90
8633;DHT22;4354;49.832;10.746;2022-07-21T01:53:00;20.80;99.90
8633;DHT22;4354;49.832;10.746;2022-07-21T01:55:27;20.80;99.90
8633;DHT22;4354;49.832;10.746;2022-07-21T01:57:55;20.70;99.90
8633;DHT22;4354;49.832;10.746;2022-07-21T02:00:23;20.70;99.90
8633;DHT22;4354;49.832;10.746;2022-07-21T02:02:49;20.70;99.90
8633;DHT22;4354;49.832;10.746;2022-07-21T02:05:17;20.70;99.90
8633;DHT22;4354;49.832;10.746;2022-07-21T02:07:43;20.70;99.90
8633;DHT22;4354;49.832;10.746;2022-07-21T02:10:10;20.70;99.90
8633;DHT22;4354;49.832;10.746;2022-07-21T02:12:37;20.60;99.90
8633;DHT22;4354;49.832;10.746;2022-07-21T02:15:05;20.60;99.90
8633;DHT22;4354;49.832;10.746;2022-07-21T02:17:32;20.50;99.90
8633;DHT22;4354;49.832;10.746;2022-07-21T02:19:59;20.40;99.90
8633;DHT22;4354;49.832;10.746;2022-07-21T02:22:25;20.30;99.90
8633;DHT22;4354;49.832;10.746;2022-07-21T02:24:53;20.20;99.90
8633;DHT22;4354;49.832;10.746;2022-07-21T02:27:20;20.10;99.90
8633;DHT22;4354;49.832;10.746;2022-07-21T02:29:47;20.00;99.90
8633;DHT22;4354;49.832;10.746;2022-07-21T02:32:14;20.00;99.90
8633;DHT22;4354;49.832;10.746;2022-07-21T02:34:41;19.90;99.90
8633;DHT22;4354;49.832;10.746;2022-07-21T02:37:08;19.80;99.90
8633;DHT22;4354;49.832;10.746;2022-07-21T02:39:35;19.70;99.90
8633;DHT22;4354;49.832;10.746;2022-07-21T02:42:01;19.70;99.90
8633;DHT22;4354;49.832;10.746;2022-07-21T02:44:28;19.70;99.90
8633;DHT22;4354;49.832;10.746;2022-07-21T02:46:57;19.60;99.90
8633;DHT22;4354;49.832;10.746;2022-07-21T02:49:24;19.50;99.90
8633;DHT22;4354;49.832;10.746;2022-07-21T02:51:51;19.50;99.90
8633;DHT22;4354;49.832;10.746;2022-07-21T02:54:18;19.40;99.90
8633;DHT22;4354;49.832;10.746;2022-07-21T02:56:48;19.30;99.90
8633;DHT22;4354;49.832;10.746;2022-07-21T02:59:14;19.30;99.90
8633;DHT22;4354;49.832;10.746;2022-07-21T03:01:41;19.30;99.90
8633;DHT22;4354;49.832;10.746;2022-07-21T03:04:09;19.30;99.90
8633;DHT22;4354;49.832;10.746;2022-07-21T03:06:36;19.30;99.90
8633;DHT22;4354;49.832;10.746;2022-07-21T03:09:04;19.20;99.90
8633;DHT22;4354;49.832;10.746;2022-07-21T03:11:31;19.30;99.90
8633;DHT22;4354;49.832;10.746;2022-07-21T03:13:58;19.20;99.90
8633;DHT22;4354;49.832;10.746;2022-07-21T03:16:25;19.10;99.90
8633;DHT22;4354;49.832;10.746;2022-07-21T03:18:52;19.10;99.90
8633;DHT22;4354;49.832;10.746;2022-07-21T03:21:19;19.10;99.90
8633;DHT22;4354;49.832;10.746;2022-07-21T03:23:46;19.10;99.90
8633;DHT22;4354;49.832;10.746;2022-07-21T03:26:14;19.20;99.90
8633;DHT22;4354;49.832;10.746;2022-07-21T03:28:42;19.20;99.90
8633;DHT22;4354;49.832;10.746;2022-07-21T03:31:09;19.20;99.90
8633;DHT22;4354;49.832;10.746;2022-07-21T03:33:36;19.20;99.90
8633;DHT22;4354;49.832;10.746;2022-07-21T03:36:03;19.30;99.90
8633;DHT22;4354;49.832;10.746;2022-07-21T03:38:30;19.30;99.90
8633;DHT22;4354;49.832;10.746;2022-07-21T03:40:57;19.30;99.90
8633;DHT22;4354;49.832;10.746;2022-07-21T03:43:24;19.30;99.90
8633;DHT22;4354;49.832;10.746;2022-07-21T03:45:51;19.30;99.90
8633;DHT22;4354;49.832;10.746;2022-07-21T03:48:18;19.30;99.90
8633;DHT22;4354;49.832;10.746;2022-07-21T03:50:45;19.30;99.90
8633;DHT22;4354;49.832;10.746;2022-07-21T03:53:12;19.30;99.90
8633;DHT22;4354;49.832;10.746;2022-07-21T03:55:39;19.30;99.90
8633;DHT22;4354;49.832;10.746;2022-07-21T03:58:06;19.30;99.90
8633;DHT22;4354;49.832;10.746;2022-07-21T04:00:39;19.30;99.90
8633;DHT22;4354;49.832;10.746;2022-07-21T04:03:06;19.30;99.90
8633;DHT22;4354;49.832;10.746;2022-07-21T04:05:34;19.30;99.90
8633;DHT22;4354;49.832;10.746;2022-07-21T04:08:02;19.40;99.90
8633;DHT22;4354;49.832;10.746;2022-07-21T04:10:34;19.40;99.90
8633;DHT22;4354;49.832;10.746;2022-07-21T04:13:03;19.40;99.90
8633;DHT22;4354;49.832;10.746;2022-07-21T04:15:32;19.40;99.90
8633;DHT22;4354;49.832;10.746;2022-07-21T04:18:00;19.50;99.90
8633;DHT22;4354;49.832;10.746;2022-07-21T04:20:26;19.50;99.90
8633;DHT22;4354;49.832;10.746;2022-07-21T04:22:54;19.50;99.90
8633;DHT22;4354;49.832;10.746;2022-07-21T04:25:21;19.60;99.90
8633;DHT22;4354;49.832;10.746;2022-07-21T04:27:49;19.60;99.90
8633;DHT22;4354;49.832;10.746;2022-07-21T04:30:19;19.70;99.90
8633;DHT22;4354;49.832;10.746;2022-07-21T04:32:46;19.60;99.90
8633;DHT22;4354;49.832;10.746;2022-07-21T04:35:14;19.60;99.90
8633;DHT22;4354;49.832;10.746;2022-07-21T04:37:42;19.70;99.90
8633;DHT22;4354;49.832;10.746;2022-07-21T04:40:10;19.70;99.90
8633;DHT22;4354;49.832;10.746;2022-07-21T04:42:38;19.70;99.90
8633;DHT22;4354;49.832;10.746;2022-07-21T04:45:06;19.80;99.90
8633;DHT22;4354;49.832;10.746;2022-07-21T04:47:42;19.80;99.90
8633;DHT22;4354;49.832;10.746;2022-07-21T04:50:26;19.80;99.90
8633;DHT22;4354;49.832;10.746;2022-07-21T04:52:53;19.80;99.90
8633;DHT22;4354;49.832;10.746;2022-07-21T04:55:21;19.80;99.90
8633;DHT22;4354;49.832;10.746;2022-07-21T04:57:50;19.80;99.90
8633;DHT22;4354;49.832;10.746;2022-07-21T05:00:19;19.80;99.90
8633;DHT22;4354;49.832;10.746;2022-07-21T05:02:48;19.90;99.90
8633;DHT22;4354;49.832;10.746;2022-07-21T05:05:15;19.80;99.90
8633;DHT22;4354;49.832;10.746;2022-07-21T05:07:42;19.90;99.90
8633;DHT22;4354;49.832;10.746;2022-07-21T05:10:11;19.90;99.90
8633;DHT22;4354;49.832;10.746;2022-07-21T05:12:39;20.00;99.90
8633;DHT22;4354;49.832;10.746;2022-07-21T05:15:08;20.00;99.90
8633;DHT22;4354;49.832;10.746;2022-07-21T05:17:39;20.10;99.90
8633;DHT22;4354;49.832;10.746;2022-07-21T05:20:08;20.20;99.90
8633;DHT22;4354;49.832;10.746;2022-07-21T05:22:35;20.20;99.90
8633;DHT22;4354;49.832;10.746;2022-07-21T05:25:03;20.20;99.90
8633;DHT22;4354;49.832;10.746;2022-07-21T05:27:30;20.30;99.90
8633;DHT22;4354;49.832;10.746;2022-07-21T05:29:57;20.30;99.90
8633;DHT22;4354;49.832;10.746;2022-07-21T05:32:24;20.30;99.90
8633;DHT22;4354;49.832;10.746;2022-07-21T05:34:51;20.40;99.90
8633;DHT22;4354;49.832;10.746;2022-07-21T05:37:18;20.40;99.90
8633;DHT22;4354;49.832;10.746;2022-07-21T05:39:45;20.50;99.90
8633;DHT22;4354;49.832;10.746;2022-07-21T05:42:12;20.40;99.90
8633;DHT22;4354;49.832;10.746;2022-07-21T05:44:39;20.40;99.90
8633;DHT22;4354;49.832;10.746;2022-07-21T05:47:06;20.50;99.90
8633;DHT22;4354;49.832;10.746;2022-07-21T05:49:33;20.50;99.90
8633;DHT22;4354;49.832;10.746;2022-07-21T05:52:00;20.50;99.90
8633;DHT22;4354;49.832;10.746;2022-07-21T05:54:27;20.60;99.90
8633;DHT22;4354;49.832;10.746;2022-07-21T05:56:54;20.50;99.90
8633;DHT22;4354;49.832;10.746;2022-07-21T05:59:21;20.60;99.90
8633;DHT22;4354;49.832;10.746;2022-07-21T06:01:48;20.60;99.90
8633;DHT22;4354;49.832;10.746;2022-07-21T06:04:15;20.70;99.90
8633;DHT22;4354;49.832;10.746;2022-07-21T06:06:42;20.80;99.90
8633;DHT22;4354;49.832;10.746;2022-07-21T06:09:09;21.00;99.90
8633;DHT22;4354;49.832;10.746;2022-07-21T06:11:36;21.40;99.90
8633;DHT22;4354;49.832;10.746;2022-07-21T06:14:04;21.70;99.90
8633;DHT22;4354;49.832;10.746;2022-07-21T06:16:31;21.90;99.90
8633;DHT22;4354;49.832;10.746;2022-07-21T06:18:59;22.10;99.90
8633;DHT22;4354;49.832;10.746;2022-07-21T06:21:28;22.10;99.90
8633;DHT22;4354;49.832;10.746;2022-07-21T06:23:55;22.20;99.90
8633;DHT22;4354;49.832;10.746;2022-07-21T06:26:25;22.10;99.90
8633;DHT22;4354;49.832;10.746;2022-07-21T06:28:52;22.20;99.90
8633;DHT22;4354;49.832;10.746;2022-07-21T06:31:19;22.30;99.90
8633;DHT22;4354;49.832;10.746;2022-07-21T06:33:46;22.20;99.90
8633;DHT22;4354;49.832;10.746;2022-07-21T06:36:12;22.10;99.90
8633;DHT22;4354;49.832;10.746;2022-07-21T06:38:39;22.00;99.90
8633;DHT22;4354;49.832;10.746;2022-07-21T06:41:06;22.00;99.90
8633;DHT22;4354;49.832;10.746;2022-07-21T06:43:34;21.90;99.90
8633;DHT22;4354;49.832;10.746;2022-07-21T06:46:00;22.00;99.90
8633;DHT22;4354;49.832;10.746;2022-07-21T06:48:28;22.10;99.90
8633;DHT22;4354;49.832;10.746;2022-07-21T06:50:55;22.10;99.90
8633;DHT22;4354;49.832;10.746;2022-07-21T06:53:24;22.10;99.90
8633;DHT22;4354;49.832;10.746;2022-07-21T06:55:53;22.10;99.90
8633;DHT22;4354;49.832;10.746;2022-07-21T06:58:28;22.10;99.90
8633;DHT22;4354;49.832;10.746;2022-07-21T07:01:02;22.10;99.90
8633;DHT22;4354;49.832;10.746;2022-07-21T07:03:29;22.10;99.90
8633;DHT22;4354;49.832;10.746;2022-07-21T07:05:56;22.10;99.90
8633;DHT22;4354;49.832;10.746;2022-07-21T07:08:23;22.30;99.90
8633;DHT22;4354;49.832;10.746;2022-07-21T07:10:50;22.50;99.90
8633;DHT22;4354;49.832;10.746;2022-07-21T07:13:17;22.60;99.90
8633;DHT22;4354;49.832;10.746;2022-07-21T07:16:04;22.60;99.90
8633;DHT22;4354;49.832;10.746;2022-07-21T07:18:31;22.60;99.90
8633;DHT22;4354;49.832;10.746;2022-07-21T07:20:58;22.70;99.90
8633;DHT22;4354;49.832;10.746;2022-07-21T07:23:25;23.10;99.90
8633;DHT22;4354;49.832;10.746;2022-07-21T07:25:52;23.20;99.90
8633;DHT22;4354;49.832;10.746;2022-07-21T07:28:19;23.30;99.90
8633;DHT22;4354;49.832;10.746;2022-07-21T07:30:46;23.40;99.90
8633;DHT22;4354;49.832;10.746;2022-07-21T07:33:12;23.60;99.90
8633;DHT22;4354;49.832;10.746;2022-07-21T07:35:39;23.70;99.90
8633;DHT22;4354;49.832;10.746;2022-07-21T07:38:06;24.00;99.90
8633;DHT22;4354;49.832;10.746;2022-07-21T07:40:33;23.90;99.90
8633;DHT22;4354;49.832;10.746;2022-07-21T07:43:03;24.00;99.90
8633;DHT22;4354;49.832;10.746;2022-07-21T07:45:37;24.10;99.90
8633;DHT22;4354;49.832;10.746;2022-07-21T07:48:05;24.20;99.90
8633;DHT22;4354;49.832;10.746;2022-07-21T07:50:32;24.50;99.90
8633;DHT22;4354;49.832;10.746;2022-07-21T07:52:59;24.80;99.90
8633;DHT22;4354;49.832;10.746;2022-07-21T07:55:26;24.80;99.90
8633;DHT22;4354;49.832;10.746;2022-07-21T07:57:53;25.60;99.90
8633;DHT22;4354;49.832;10.746;2022-07-21T08:00:20;26.60;99.90
8633;DHT22;4354;49.832;10.746;2022-07-21T08:03:07;27.10;99.90
8633;DHT22;4354;49.832;10.746;2022-07-21T08:05:34;27.90;99.90
8633;DHT22;4354;49.832;10.746;2022-07-21T08:08:03;28.20;99.90
8633;DHT22;4354;49.832;10.746;2022-07-21T08:10:30;28.40;99.90
8633;DHT22;4354;49.832;10.746;2022-07-21T08:13:08;28.60;99.90
8633;DHT22;4354;49.832;10.746;2022-07-21T08:15:36;29.10;99.90
8633;DHT22;4354;49.832;10.746;2022-07-21T08:18:04;30.40;99.90
8633;DHT22;4354;49.832;10.746;2022-07-21T08:20:31;31.60;99.90
8633;DHT22;4354;49.832;10.746;2022-07-21T08:22:58;31.40;98.20
8633;DHT22;4354;49.832;10.746;2022-07-21T08:25:25;31.60;95.90
8633;DHT22;4354;49.832;10.746;2022-07-21T08:27:52;30.90;94.80
8633;DHT22;4354;49.832;10.746;2022-07-21T08:30:19;29.70;95.00
8633;DHT22;4354;49.832;10.746;2022-07-21T08:32:54;28.50;97.30
8633;DHT22;4354;49.832;10.746;2022-07-21T08:35:21;27.60;98.90
8633;DHT22;4354;49.832;10.746;2022-07-21T08:40:24;27.10;99.90
8633;DHT22;4354;49.832;10.746;2022-07-21T08:42:53;28.30;99.90
8633;DHT22;4354;49.832;10.746;2022-07-21T08:45:21;27.80;99.90
8633;DHT22;4354;49.832;10.746;2022-07-21T08:47:53;28.20;99.90
8633;DHT22;4354;49.832;10.746;2022-07-21T08:50:27;28.80;99.90
8633;DHT22;4354;49.832;10.746;2022-07-21T08:52:54;28.70;99.60
8633;DHT22;4354;49.832;10.746;2022-07-21T08:55:31;28.30;99.50
8633;DHT22;4354;49.832;10.746;2022-07-21T08:57:58;29.10;99.90
8633;DHT22;4354;49.832;10.746;2022-07-21T09:00:25;29.90;97.80
8633;DHT22;4354;49.832;10.746;2022-07-21T09:03:23;30.20;97.10
8633;DHT22;4354;49.832;10.746;2022-07-21T09:08:36;28.80;97.90
8633;DHT22;4354;49.832;10.746;2022-07-21T09:13:36;30.50;95.10
8633;DHT22;4354;49.832;10.746;2022-07-21T09:16:03;31.90;92.70
8633;DHT22;4354;49.832;10.746;2022-07-21T09:18:30;33.00;89.80
8633;DHT22;4354;49.832;10.746;2022-07-21T09:20:57;33.90;86.10
8633;DHT22;4354;49.832;10.746;2022-07-21T09:23:28;35.50;78.60
8633;DHT22;4354;49.832;10.746;2022-07-21T09:25:56;36.50;73.40
8633;DHT22;4354;49.832;10.746;2022-07-21T09:28:27;35.80;68.70
8633;DHT22;4354;49.832;10.746;2022-07-21T09:31:03;34.20;71.30
8633;DHT22;4354;49.832;10.746;2022-07-21T09:33:33;34.40;72.30
8633;DHT22;4354;49.832;10.746;2022-07-21T09:36:09;33.20;71.20
8633;DHT22;4354;49.832;10.746;2022-07-21T09:43:44;34.40;70.70
8633;DHT22;4354;49.832;10.746;2022-07-21T09:46:23;35.60;66.50
8633;DHT22;4354;49.832;10.746;2022-07-21T09:48:53;36.70;64.10
8633;DHT22;4354;49.832;10.746;2022-07-21T09:51:41;36.60;61.70
8633;DHT22;4354;49.832;10.746;2022-07-21T09:54:12;37.50;60.00
8633;DHT22;4354;49.832;10.746;2022-07-21T09:56:42;37.30;59.00
8633;DHT22;4354;49.832;10.746;2022-07-21T09:59:12;36.30;56.70
8633;DHT22;4354;49.832;10.746;2022-07-21T10:01:39;35.40;59.30
8633;DHT22;4354;49.832;10.746;2022-07-21T10:04:07;34.50;60.00
8633;DHT22;4354;49.832;10.746;2022-07-21T10:06:37;33.40;61.60
8633;DHT22;4354;49.832;10.746;2022-07-21T10:09:09;32.80;64.70
8633;DHT22;4354;49.832;10.746;2022-07-21T10:11:40;32.80;63.00
8633;DHT22;4354;49.832;10.746;2022-07-21T10:14:12;33.60;62.30
8633;DHT22;4354;49.832;10.746;2022-07-21T10:16:39;34.20;61.60
8633;DHT22;4354;49.832;10.746;2022-07-21T10:19:39;36.00;59.60
8633;DHT22;4354;49.832;10.746;2022-07-21T10:22:23;35.90;59.20
8633;DHT22;4354;49.832;10.746;2022-07-21T10:24:52;36.80;57.00
8633;DHT22;4354;49.832;10.746;2022-07-21T10:27:19;37.20;54.90
8633;DHT22;4354;49.832;10.746;2022-07-21T10:30:07;36.40;54.40
8633;DHT22;4354;49.832;10.746;2022-07-21T10:32:37;37.10;55.10
8633;DHT22;4354;49.832;10.746;2022-07-21T10:35:26;37.80;53.10
8633;DHT22;4354;49.832;10.746;2022-07-21T10:37:56;36.80;53.20
8633;DHT22;4354;49.832;10.746;2022-07-21T10:45:36;36.10;53.50
8633;DHT22;4354;49.832;10.746;2022-07-21T10:48:46;34.30;56.80
8633;DHT22;4354;49.832;10.746;2022-07-21T10:50:59;33.20;58.50
8633;DHT22;4354;49.832;10.746;2022-07-21T10:53:26;32.30;59.80
8633;DHT22;4354;49.832;10.746;2022-07-21T10:55:54;31.20;61.40
8633;DHT22;4354;49.832;10.746;2022-07-21T10:58:48;30.30;63.20
8633;DHT22;4354;49.832;10.746;2022-07-21T11:04:09;32.90;61.20
8633;DHT22;4354;49.832;10.746;2022-07-21T11:06:40;33.40;58.70
8633;DHT22;4354;49.832;10.746;2022-07-21T11:09:09;33.50;58.20
8633;DHT22;4354;49.832;10.746;2022-07-21T11:11:59;33.80;57.60
8633;DHT22;4354;49.832;10.746;2022-07-21T11:14:43;33.90;57.10
8633;DHT22;4354;49.832;10.746;2022-07-21T11:17:39;35.20;55.40
8633;DHT22;4354;49.832;10.746;2022-07-21T11:20:15;36.00;53.50
8633;DHT22;4354;49.832;10.746;2022-07-21T11:22:42;36.40;51.10
8633;DHT22;4354;49.832;10.746;2022-07-21T11:25:19;36.90;51.70
8633;DHT22;4354;49.832;10.746;2022-07-21T11:27:46;36.00;51.30
8633;DHT22;4354;49.832;10.746;2022-07-21T11:30:18;36.40;50.20
8633;DHT22;4354;49.832;10.746;2022-07-21T11:32:48;36.70;51.30
8633;DHT22;4354;49.832;10.746;2022-07-21T11:35:15;34.90;51.40
8633;DHT22;4354;49.832;10.746;2022-07-21T11:37:45;34.40;50.70
8633;DHT22;4354;49.832;10.746;2022-07-21T11:40:18;34.20;50.60
8633;DHT22;4354;49.832;10.746;2022-07-21T11:42:47;34.60;51.30
8633;DHT22;4354;49.832;10.746;2022-07-21T11:45:17;34.10;52.40
8633;DHT22;4354;49.832;10.746;2022-07-21T11:47:48;34.50;52.40
8633;DHT22;4354;49.832;10.746;2022-07-21T11:50:18;35.00;51.50
8633;DHT22;4354;49.832;10.746;2022-07-21T11:52:45;34.90;51.90
8633;DHT22;4354;49.832;10.746;2022-07-21T11:55:12;34.60;52.20
8633;DHT22;4354;49.832;10.746;2022-07-21T11:57:44;34.50;52.40
8633;DHT22;4354;49.832;10.746;2022-07-21T12:00:12;34.60;53.50
8633;DHT22;4354;49.832;10.746;2022-07-21T12:02:43;33.80;53.50
8633;DHT22;4354;49.832;10.746;2022-07-21T12:05:10;33.80;55.00
8633;DHT22;4354;49.832;10.746;2022-07-21T12:07:40;34.40;54.40
8633;DHT22;4354;49.832;10.746;2022-07-21T12:12:38;32.80;56.40
8633;DHT22;4354;49.832;10.746;2022-07-21T12:17:49;31.90;56.50
8633;DHT22;4354;49.832;10.746;2022-07-21T12:20:39;32.10;56.10
8633;DHT22;4354;49.832;10.746;2022-07-21T12:23:25;32.80;56.40
8633;DHT22;4354;49.832;10.746;2022-07-21T12:25:56;32.50;57.90
8633;DHT22;4354;49.832;10.746;2022-07-21T12:28:49;32.80;56.60
8633;DHT22;4354;49.832;10.746;2022-07-21T12:31:21;32.50;56.00
8633;DHT22;4354;49.832;10.746;2022-07-21T12:33:50;32.40;56.30
8633;DHT22;4354;49.832;10.746;2022-07-21T12:36:37;33.00;56.60
8633;DHT22;4354;49.832;10.746;2022-07-21T12:42:06;33.80;55.00
8633;DHT22;4354;49.832;10.746;2022-07-21T12:44:34;32.80;53.80
8633;DHT22;4354;49.832;10.746;2022-07-21T12:47:19;33.50;54.50
8633;DHT22;4354;49.832;10.746;2022-07-21T12:50:07;33.20;53.50
8633;DHT22;4354;49.832;10.746;2022-07-21T12:52:44;32.80;53.30
8633;DHT22;4354;49.832;10.746;2022-07-21T12:55:11;31.90;54.00
8633;DHT22;4354;49.832;10.746;2022-07-21T12:57:38;32.00;54.60
8633;DHT22;4354;49.832;10.746;2022-07-21T13:00:05;32.40;53.70
8633;DHT22;4354;49.832;10.746;2022-07-21T13:02:49;32.80;53.60
8633;DHT22;4354;49.832;10.746;2022-07-21T13:05:17;32.90;53.50
8633;DHT22;4354;49.832;10.746;2022-07-21T13:07:44;33.10;54.10
8633;DHT22;4354;49.832;10.746;2022-07-21T13:10:11;33.40;54.30
8633;DHT22;4354;49.832;10.746;2022-07-21T13:12:38;33.70;53.40
8633;DHT22;4354;49.832;10.746;2022-07-21T13:15:06;33.40;52.70
8633;DHT22;4354;49.832;10.746;2022-07-21T13:17:33;33.40;51.00
8633;DHT22;4354;49.832;10.746;2022-07-21T13:20:00;33.30;51.30
8633;DHT22;4354;49.832;10.746;2022-07-21T13:22:33;33.40;51.40
8633;DHT22;4354;49.832;10.746;2022-07-21T13:25:00;32.30;53.20
8633;DHT22;4354;49.832;10.746;2022-07-21T13:27:27;32.30;53.30
8633;DHT22;4354;49.832;10.746;2022-07-21T13:29:54;32.40;54.30
8633;DHT22;4354;49.832;10.746;2022-07-21T13:32:21;32.60;54.10
8633;DHT22;4354;49.832;10.746;2022-07-21T13:34:48;33.20;53.10
8633;DHT22;4354;49.832;10.746;2022-07-21T13:37:35;33.80;52.80
8633;DHT22;4354;49.832;10.746;2022-07-21T13:40:03;33.50;50.50
8633;DHT22;4354;49.832;10.746;2022-07-21T13:42:50;32.80;52.40
8633;DHT22;4354;49.832;10.746;2022-07-21T13:45:31;32.10;51.90
8633;DHT22;4354;49.832;10.746;2022-07-21T13:47:58;32.20;53.50
8633;DHT22;4354;49.832;10.746;2022-07-21T13:50:25;32.50;51.30
8633;DHT22;4354;49.832;10.746;2022-07-21T13:52:52;32.40;51.20
8633;DHT22;4354;49.832;10.746;2022-07-21T13:55:19;32.20;51.40
8633;DHT22;4354;49.832;10.746;2022-07-21T13:57:46;32.10;52.90
8633;DHT22;4354;49.832;10.746;2022-07-21T14:00:15;32.30;51.00
8633;DHT22;4354;49.832;10.746;2022-07-21T14:02:42;32.20;51.40
8633;DHT22;4354;49.832;10.746;2022-07-21T14:05:10;32.20;51.50
8633;DHT22;4354;49.832;10.746;2022-07-21T14:07:38;32.20;51.60
8633;DHT22;4354;49.832;10.746;2022-07-21T14:10:06;32.00;50.60
8633;DHT22;4354;49.832;10.746;2022-07-21T14:12:33;31.80;50.30
8633;DHT22;4354;49.832;10.746;2022-07-21T14:15:08;31.70;50.20
8633;DHT22;4354;49.832;10.746;2022-07-21T14:17:35;31.60;49.70
8633;DHT22;4354;49.832;10.746;2022-07-21T14:20:03;31.50;51.00
8633;DHT22;4354;49.832;10.746;2022-07-21T14:22:31;31.60;51.40
8633;DHT22;4354;49.832;10.746;2022-07-21T14:24:58;31.10;51.90
8633;DHT22;4354;49.832;10.746;2022-07-21T14:27:44;30.80;52.40
8633;DHT22;4354;49.832;10.746;2022-07-21T14:30:14;30.90;52.50
8633;DHT22;4354;49.832;10.746;2022-07-21T14:32:41;31.10;52.40
8633;DHT22;4354;49.832;10.746;2022-07-21T14:35:09;30.70;53.20
8633;DHT22;4354;49.832;10.746;2022-07-21T14:37:36;30.60;53.60
8633;DHT22;4354;49.832;10.746;2022-07-21T14:40:05;30.40;52.50
8633;DHT22;4354;49.832;10.746;2022-07-21T14:42:33;30.30;52.80
8633;DHT22;4354;49.832;10.746;2022-07-21T14:45:01;30.30;52.90
8633;DHT22;4354;49.832;10.746;2022-07-21T14:47:36;30.30;52.90
8633;DHT22;4354;49.832;10.746;2022-07-21T14:50:03;30.40;53.10
8633;DHT22;4354;49.832;10.746;2022-07-21T14:52:31;30.50;52.10
8633;DHT22;4354;49.832;10.746;2022-07-21T14:54:57;30.20;53.20
8633;DHT22;4354;49.832;10.746;2022-07-21T14:57:25;29.90;53.60
8633;DHT22;4354;49.832;10.746;2022-07-21T14:59:52;29.50;53.30
8633;DHT22;4354;49.832;10.746;2022-07-21T15:02:19;29.20;53.90
8633;DHT22;4354;49.832;10.746;2022-07-21T15:04:47;28.90;55.10
8633;DHT22;4354;49.832;10.746;2022-07-21T15:07:15;28.60;55.40
8633;DHT22;4354;49.832;10.746;2022-07-21T15:09:42;28.50;56.10
8633;DHT22;4354;49.832;10.746;2022-07-21T15:12:10;28.70;56.90
8633;DHT22;4354;49.832;10.746;2022-07-21T15:14:38;29.10;56.90
8633;DHT22;4354;49.832;10.746;2022-07-21T15:17:05;29.40;57.00
8633;DHT22;4354;49.832;10.746;2022-07-21T15:19:33;29.70;55.60
8633;DHT22;4354;49.832;10.746;2022-07-21T15:22:03;29.70;55.40
8633;DHT22;4354;49.832;10.746;2022-07-21T15:24:29;29.80;55.20
8633;DHT22;4354;49.832;10.746;2022-07-21T15:26:56;29.80;55.00
8633;DHT22;4354;49.832;10.746;2022-07-21T15:29:23;29.80;55.00
8633;DHT22;4354;49.832;10.746;2022-07-21T15:31:50;29.80;55.70
8633;DHT22;4354;49.832;10.746;2022-07-21T15:34:17;29.70;55.80
8633;DHT22;4354;49.832;10.746;2022-07-21T15:36:44;29.80;55.50
8633;DHT22;4354;49.832;10.746;2022-07-21T15:39:11;29.50;55.70
8633;DHT22;4354;49.832;10.746;2022-07-21T15:41:39;29.10;56.90
8633;DHT22;4354;49.832;10.746;2022-07-21T15:44:21;28.70;58.30
8633;DHT22;4354;49.832;10.746;2022-07-21T15:46:48;28.80;58.80
8633;DHT22;4354;49.832;10.746;2022-07-21T15:49:16;28.70;58.00
8633;DHT22;4354;49.832;10.746;2022-07-21T15:51:46;28.40;57.50
8633;DHT22;4354;49.832;10.746;2022-07-21T15:54:14;28.20;58.60
8633;DHT22;4354;49.832;10.746;2022-07-21T15:57:01;28.10;59.00
8633;DHT22;4354;49.832;10.746;2022-07-21T15:59:28;28.20;59.70
8633;DHT22;4354;49.832;10.746;2022-07-21T16:02:14;28.40;59.30
8633;DHT22;4354;49.832;10.746;2022-07-21T16:04:43;28.50;58.80
8633;DHT22;4354;49.832;10.746;2022-07-21T16:07:11;28.60;58.70
8633;DHT22;4354;49.832;10.746;2022-07-21T16:09:40;28.70;58.80
8633;DHT22;4354;49.832;10.746;2022-07-21T16:12:09;28.70;58.30
8633;DHT22;4354;49.832;10.746;2022-07-21T16:14:36;28.80;58.70
8633;DHT22;4354;49.832;10.746;2022-07-21T16:17:04;28.90;58.40
8633;DHT22;4354;49.832;10.746;2022-07-21T16:19:32;28.90;59.00
8633;DHT22;4354;49.832;10.746;2022-07-21T16:22:00;28.90;58.60
8633;DHT22;4354;49.832;10.746;2022-07-21T16:24:27;28.80;58.60
8633;DHT22;4354;49.832;10.746;2022-07-21T16:26:54;28.80;58.40
8633;DHT22;4354;49.832;10.746;2022-07-21T16:29:22;28.70;59.20